This is the latest recevied weather packets stored in our database for station/object KM4CNW. If no packets are shown the sender has not sent any weather packets the latest 1 day(s).
| Time | Temp. | Humidity | Pressure | Rain* | Wind** | Luminosity | Snow |
|---|---|---|---|---|---|---|---|
| 1778021889 | 24.44° C | 37% | 1007.6 hPa | 0 mm | 2.24 m/s, 323° | 41 W/m² | - |
| 1778021586 | 24.44° C | 36% | 1007.4 hPa | 0 mm | 2.24 m/s, 320° | 54 W/m² | - |
| 1778021281 | 25° C | 35% | 1007.5 hPa | 0 mm | 0.89 m/s, 293° | 59 W/m² | - |
| 1778020979 | 25° C | 34% | 1007.6 hPa | 0 mm | 0.89 m/s, 268° | 70 W/m² | - |
| 1778020677 | 25° C | 34% | 1007.6 hPa | 0 mm | 2.68 m/s, 311° | 49 W/m² | - |
| 1778020373 | 25.56° C | 33% | 1007.6 hPa | 0 mm | 3.13 m/s, 315° | 90 W/m² | - |
| 1778020069 | 25.56° C | 32% | 1007.8 hPa | 0 mm | 0.89 m/s, 281° | 113 W/m² | - |
| 1778019765 | 25.56° C | 32% | 1007.7 hPa | 0 mm | 0.45 m/s, 137° | 142 W/m² | - |
| 1778019463 | 26.11° C | 32% | 1007.6 hPa | 0 mm | 0.89 m/s, 302° | 218 W/m² | - |
| 1778019159 | 26.11° C | 31% | 1007.7 hPa | 0 mm | 1.34 m/s, 295° | 254 W/m² | - |
| 1778018856 | 26.11° C | 31% | 1007.5 hPa | 0 mm | 0.45 m/s, 208° | 262 W/m² | - |
| 1778018553 | 26.11° C | 32% | 1007.5 hPa | 0 mm | 0.89 m/s, 299° | 279 W/m² | - |
| 1778018251 | 26.67° C | 32% | 1007.8 hPa | 0 mm | 1.79 m/s, 354° | 299 W/m² | - |
| 1778017949 | 26.67° C | 32% | 1007.7 hPa | 0 mm | 0.89 m/s, 315° | 326 W/m² | - |
| 1778017646 | 26.11° C | 33% | 1008 hPa | 0 mm | 0.45 m/s, 241° | 382 W/m² | - |
| 1778017344 | 25.56° C | 33% | 1007.7 hPa | 0 mm | 1.79 m/s, 358° | 309 W/m² | - |
| 1778017041 | 26.11° C | 32% | 1007.9 hPa | 0 mm | 3.13 m/s, 330° | 263 W/m² | - |
| 1778016738 | 26.67° C | 32% | 1007.9 hPa | 0 mm | 1.34 m/s, 73° | 245 W/m² | - |
| 1778016434 | 26.67° C | 32% | 1007.8 hPa | 0 mm | 3.58 m/s, 330° | 340 W/m² | - |
| 1778016132 | 27.22° C | 31% | 1007.8 hPa | 0 mm | 1.79 m/s, 328° | 461 W/m² | - |
| 1778015828 | 26.67° C | 32% | 1007.6 hPa | 0 mm | 1.79 m/s, 343° | 489 W/m² | - |
| 1778015526 | 27.22° C | 31% | 1007.8 hPa | 0 mm | 3.58 m/s, 329° | 521 W/m² | - |
| 1778015222 | 27.22° C | 32% | 1008 hPa | 0 mm | 0.89 m/s, 133° | 504 W/m² | - |
| 1778014919 | 26.67° C | 31% | 1007.9 hPa | 0 mm | 1.79 m/s, 39° | 506 W/m² | - |
| 1778014616 | 26.67° C | 31% | 1007.9 hPa | 0 mm | 0.89 m/s, 247° | 548 W/m² | - |
* Rain latest hour (hover to see other rain measurements)
** Current wind speed in m/s (hover to see current wind gust speed)